地図

経路データ

SID SEASON NUMBER BASIN SUBBASIN NAME ISO_TIME NATURE LAT LON WMO_WIND WMO_PRES WMO_AGENCY TRACK_TYPE DIST2LAND LANDFALL IFLAG USA_AGENCY USA_ATCF_ID USA_LAT USA_LON USA_RECORD USA_STATUS USA_WIND USA_PRES USA_SSHS USA_R34_NE USA_R34_SE USA_R34_SW USA_R34_NW USA_R50_NE USA_R50_SE USA_R50_SW USA_R50_NW USA_R64_NE USA_R64_SE USA_R64_SW USA_R64_NW USA_POCI USA_ROCI USA_RMW USA_EYE TOKYO_LAT TOKYO_LON TOKYO_GRADE TOKYO_WIND TOKYO_PRES TOKYO_R50_DIR TOKYO_R50_LONG TOKYO_R50_SHORT TOKYO_R30_DIR TOKYO_R30_LONG TOKYO_R30_SHORT TOKYO_LAND CMA_LAT CMA_LON CMA_CAT CMA_WIND CMA_PRES HKO_LAT HKO_LON HKO_CAT HKO_WIND HKO_PRES NEWDELHI_LAT NEWDELHI_LON NEWDELHI_GRADE NEWDELHI_WIND NEWDELHI_PRES NEWDELHI_CI NEWDELHI_DP NEWDELHI_POCI REUNION_LAT REUNION_LON REUNION_TYPE REUNION_WIND REUNION_PRES REUNION_TNUM REUNION_CI REUNION_RMW REUNION_R34_NE REUNION_R34_SE REUNION_R34_SW REUNION_R34_NW REUNION_R50_NE REUNION_R50_SE REUNION_R50_SW REUNION_R50_NW REUNION_R64_NE REUNION_R64_SE REUNION_R64_SW REUNION_R64_NW BOM_LAT BOM_LON BOM_TYPE BOM_WIND BOM_PRES BOM_TNUM BOM_CI BOM_RMW BOM_R34_NE BOM_R34_SE BOM_R34_SW BOM_R34_NW BOM_R50_NE BOM_R50_SE BOM_R50_SW BOM_R50_NW BOM_R64_NE BOM_R64_SE BOM_R64_SW BOM_R64_NW BOM_ROCI BOM_POCI BOM_EYE BOM_POS_METHOD BOM_PRES_METHOD NADI_LAT NADI_LON NADI_CAT NADI_WIND NADI_PRES WELLINGTON_LAT WELLINGTON_LON WELLINGTON_WIND WELLINGTON_PRES DS824_LAT DS824_LON DS824_STAGE DS824_WIND DS824_PRES TD9636_LAT TD9636_LON TD9636_STAGE TD9636_WIND TD9636_PRES TD9635_LAT TD9635_LON TD9635_WIND TD9635_PRES TD9635_ROCI NEUMANN_LAT NEUMANN_LON NEUMANN_CLASS NEUMANN_WIND NEUMANN_PRES MLC_LAT MLC_LON MLC_CLASS MLC_WIND MLC_PRES USA_GUST BOM_GUST BOM_GUST_PER REUNION_GUST REUNION_GUST_PER USA_SEAHGT USA_SEARAD_NE USA_SEARAD_SE USA_SEARAD_SW USA_SEARAD_NW STORM_SPEED STORM_DIR
1973349N09117 1973 135 WP MM NOT_NAMED 1973-12-15 00:00:00 TS 9.00000 117.000 main 55 55 __O___________ -1 9.00000 117.000 0 1009 14 294
1973349N09117 1973 135 WP MM NOT_NAMED 1973-12-15 03:00:00 TS 9.28269 116.368 main 126 126 __P___________ -1 9.28269 116.368 0 1008 14 291
1973349N09117 1973 135 WP MM NOT_NAMED 1973-12-15 06:00:00 TS 9.50000 115.700 main 202 202 __O___________ -1 9.50000 115.700 0 1008 14 283
1973349N09117 1973 135 WP MM NOT_NAMED 1973-12-15 09:00:00 TS 9.58988 114.973 main 276 276 __P___________ -1 9.58988 114.973 0 1008 15 270
1973349N09117 1973 135 WP MM NOT_NAMED 1973-12-15 12:00:00 TS 9.50000 114.200 main 355 355 __O___________ -1 9.50000 114.200 0 19 1008 17 257
1973349N09117 1973 135 WP MM NOT_NAMED 1973-12-15 15:00:00 TS 9.21778 113.325 main 440 440 __P___________ -1 9.21778 113.325 0 21 1008 17 246
1973349N09117 1973 135 WP MM NOT_NAMED 1973-12-15 18:00:00 TS 8.80000 112.600 main 489 465 __O___________ -1 8.80000 112.600 1 23 1008 14 231
1973349N09117 1973 135 WP MM NOT_NAMED 1973-12-15 21:00:00 TS 8.34225 112.230 main 459 425 __P___________ -1 8.34225 112.230 1 26 1007 10 209
1973349N09117 1973 135 WP MM NOT_NAMED 1973-12-16 00:00:00 TS 7.90000 112.100 main 425 402 __O___________ -1 7.90000 112.100 1 29 1007 8 193
1973349N09117 1973 135 WP MM NOT_NAMED 1973-12-16 03:00:00 TS 7.56998 112.048 main 402 368 __P___________ -1 7.56998 112.048 1 29 1007 6 179
1973349N09117 1973 135 WP MM NOT_NAMED 1973-12-16 06:00:00 TS 7.30000 112.100 main 368 343 __O___________ -1 7.30000 112.100 1 29 1007 5 167
1973349N09117 1973 135 WP MM NOT_NAMED 1973-12-16 09:00:00 TS 7.04249 112.170 main 334 310 __P___________ -1 7.04249 112.170 1 29 1007 5 158
1973349N09117 1973 135 WP MM NOT_NAMED 1973-12-16 12:00:00 TS 6.80000 112.300 main 310 278 __O___________ -1 6.80000 112.300 1 29 1007 6 148
1973349N09117 1973 135 WP MM NOT_NAMED 1973-12-16 15:00:00 TS 6.55000 112.478 main 270 238 __P___________ -1 6.55000 112.478 1 29 1006 6 141
1973349N09117 1973 135 WP MM NOT_NAMED 1973-12-16 18:00:00 TS 6.30000 112.700 main 238 207 __O___________ -1 6.30000 112.700 1 29 1006 7 138
1973349N09117 1973 135 WP MM NOT_NAMED 1973-12-16 21:00:00 TS 6.04999 112.935 main 198 161 __P___________ -1 6.04999 112.935 1 26 1006 7 135
1973349N09117 1973 135 WP MM NOT_NAMED 1973-12-17 00:00:00 TS 5.80000 113.200 main 161 125 __O___________ -1 5.80000 113.200 1 23 1007 7 133
1973349N09117 1973 135 WP MM NOT_NAMED 1973-12-17 03:00:00 TS 5.54997 113.477 main 115 81 __P___________ -1 5.54997 113.477 1 23 1007 8 130
1973349N09117 1973 135 WP MM NOT_NAMED 1973-12-17 06:00:00 TS 5.30000 113.800 main 81 44 __O___________ -1 5.30000 113.800 1 23 1007 9 128
1973349N09117 1973 135 WP MM NOT_NAMED 1973-12-17 09:00:00 TS 5.01247 114.170 main 40 0 __P___________ -1 5.01247 114.170 1 21 1007 9 122
1973349N09117 1973 135 WP MM NOT_NAMED 1973-12-17 12:00:00 TS 4.80000 114.600 main 0 0 __O___________ -1 4.80000 114.600 0 19 1008 10 105
1973349N09117 1973 135 WP MM NOT_NAMED 1973-12-17 15:00:00 TS 4.75504 115.107 main 0 0 __P___________ -1 4.75504 115.107 0 19 1008 10 90
1973349N09117 1973 135 WP MM NOT_NAMED 1973-12-17 18:00:00 TS 4.80000 115.600 main 0 0 __O___________ -1 4.80000 115.600 0 19 1008 9 87
1973349N09117 1973 135 WP MM NOT_NAMED 1973-12-17 21:00:00 TS 4.80498 116.003 main 0 0 __P___________ -1 4.80498 116.003 0 19 1008 7 82
1973349N09117 1973 135 WP MM NOT_NAMED 1973-12-18 00:00:00 TS 4.90000 116.300 main 0 0 __O___________ -1 4.90000 116.300 0 19 1008 6 54
1973349N09117 1973 135 WP MM NOT_NAMED 1973-12-18 03:00:00 TS 5.16998 116.510 main 0 0 __P___________ -1 5.16998 116.510 0 19 1008 7 26
1973349N09117 1973 135 WP MM NOT_NAMED 1973-12-18 06:00:00 TS 5.50000 116.600 main 0 0 __O___________ -1 5.50000 116.600 0 19 1008 6 7
1973349N09117 1973 135 WP MM NOT_NAMED 1973-12-18 09:00:00 TS 5.77251 116.580 main 0 0 __P___________ -1 5.77251 116.580 0 19 1008 5 349
1973349N09117 1973 135 WP MM NOT_NAMED 1973-12-18 12:00:00 TS 6.00000 116.500 main 0 __O___________ -1 6.00000 116.500 0 19 1008 5 341

デジタル台風データ・検索

IBTrACS Databaseについて

本データベースは、米国NOAAが公開する1842年以降の世界の熱帯低気圧のベストトラックデータアーカイブInternational Best Track Archive for Climate Stewardship (IBTrACS)を、ウェブで閲覧しやすい形式に変換したものです。

最終更新日:2021-10-27